Time;durP1;ratioP1;P1;durP2;ratioP2;P2;SDS_P1;SDS_P2;PMS_P1;PMS_P2;Temp;Humidity;BMP_temperature;BMP_pressure;BME280_temperature;BME280_humidity;BME280_pressure;Samples;Min_cycle;Max_cycle;Signal;HPM_P1;HPM_P2
2023/07/15 00:02:15;;;;;;;3.50;3.00;;;;;;;;;;4908755;29;20183;-73
2023/07/15 00:04:41;;;;;;;3.08;2.60;;;;;;;;;;4911244;29;20184;-73
2023/07/15 00:07:06;;;;;;;3.30;2.88;;;;;;;;;;4894950;29;20222;-72
2023/07/15 00:09:33;;;;;;;3.00;2.43;;;;;;;;;;4913540;29;20214;-72
2023/07/15 00:11:59;;;;;;;3.75;2.25;;;;;;;;;;4908020;29;20275;-73
2023/07/15 00:14:25;;;;;;;3.45;2.80;;;;;;;;;;4892832;29;20251;-73
2023/07/15 00:16:51;;;;;;;3.20;2.90;;;;;;;;;;4895903;29;20273;-73
2023/07/15 00:19:18;;;;;;;4.22;2.60;;;;;;;;;;4889890;29;20273;-72
2023/07/15 00:21:44;;;;;;;3.00;2.47;;;;;;;;;;4893512;29;20191;-73
2023/07/15 00:24:09;;;;;;;2.53;2.33;;;;;;;;;;4910466;29;20187;-73
2023/07/15 00:26:34;;;;;;;2.40;2.20;;;;;;;;;;4892958;29;20323;-73
2023/07/15 00:29:01;;;;;;;2.47;2.28;;;;;;;;;;4894818;29;20238;-72
2023/07/15 00:31:26;;;;;;;3.23;2.27;;;;;;;;;;4910401;29;20197;-73
2023/07/15 00:33:52;;;;;;;2.67;2.47;;;;;;;;;;4894994;29;20187;-73
2023/07/15 00:36:18;;;;;;;2.67;2.40;;;;;;;;;;4891570;29;20265;-72
2023/07/15 00:38:43;;;;;;;2.67;2.17;;;;;;;;;;4890519;29;20195;-72
2023/07/15 00:41:14;;;;;;;3.00;2.10;;;;;;;;;;4904813;29;20242;-73
2023/07/15 00:43:53;;;;;;;2.47;2.13;;;;;;;;;;4896335;29;20269;-73
2023/07/15 00:46:18;;;;;;;3.40;2.65;;;;;;;;;;4898794;29;20191;-72
2023/07/15 00:48:50;;;;;;;3.00;2.33;;;;;;;;;;4884135;29;20230;-73
2023/07/15 00:51:15;;;;;;;2.70;2.50;;;;;;;;;;4892464;29;20191;-72
2023/07/15 00:53:40;;;;;;;3.55;2.13;;;;;;;;;;4907613;29;20261;-73
2023/07/15 00:56:05;;;;;;;2.67;2.47;;;;;;;;;;4910286;29;20186;-73
2023/07/15 00:58:31;;;;;;;2.30;2.10;;;;;;;;;;4914647;29;20250;-73
2023/07/15 01:00:56;;;;;;;4.90;2.30;;;;;;;;;;4916050;29;20193;-72
2023/07/15 01:03:21;;;;;;;3.83;2.53;;;;;;;;;;4908891;29;20274;-73
2023/07/15 01:05:47;;;;;;;2.17;2.00;;;;;;;;;;4911415;29;20342;-73
2023/07/15 01:08:12;;;;;;;2.20;2.03;;;;;;;;;;4905944;29;20203;-73
2023/07/15 01:10:37;;;;;;;2.00;1.87;;;;;;;;;;4912441;29;20265;-73
2023/07/15 01:13:05;;;;;;;3.17;2.22;;;;;;;;;;4904984;29;20186;-72
2023/07/15 01:15:33;;;;;;;2.17;1.90;;;;;;;;;;4911195;29;20194;-73
2023/07/15 01:17:58;;;;;;;2.83;2.40;;;;;;;;;;4920986;29;20257;-73
2023/07/15 01:20:25;;;;;;;2.23;2.00;;;;;;;;;;4908203;29;20286;-72
2023/07/15 01:22:50;;;;;;;2.20;2.00;;;;;;;;;;4914040;29;20187;-73
2023/07/15 01:25:16;;;;;;;2.30;2.10;;;;;;;;;;4898606;29;20190;-73
2023/07/15 01:27:41;;;;;;;2.20;1.88;;;;;;;;;;4910608;29;20246;-73
2023/07/15 01:30:06;;;;;;;2.20;2.00;;;;;;;;;;4897107;29;20182;-73
2023/07/15 01:32:31;;;;;;;2.22;2.00;;;;;;;;;;4912848;29;20238;-73
2023/07/15 01:34:57;;;;;;;2.08;1.90;;;;;;;;;;4901500;29;20210;-72
2023/07/15 01:37:22;;;;;;;2.63;2.22;;;;;;;;;;4912176;29;20175;-73
2023/07/15 01:39:49;;;;;;;2.38;2.00;;;;;;;;;;4906115;29;20188;-73
2023/07/15 01:42:14;;;;;;;2.58;2.00;;;;;;;;;;4913035;29;20183;-73
2023/07/15 01:44:39;;;;;;;2.25;2.05;;;;;;;;;;4898121;29;20179;-73
2023/07/15 01:47:05;;;;;;;1.80;1.70;;;;;;;;;;4901547;29;20210;-73
2023/07/15 01:49:30;;;;;;;2.17;2.00;;;;;;;;;;4909340;29;20252;-73
2023/07/15 01:51:55;;;;;;;2.58;1.75;;;;;;;;;;4903922;29;20183;-73
2023/07/15 01:54:21;;;;;;;2.67;1.90;;;;;;;;;;4909737;29;20229;-73
2023/07/15 01:56:46;;;;;;;2.55;2.22;;;;;;;;;;4899141;29;20186;-72
2023/07/15 01:59:11;;;;;;;2.00;1.90;;;;;;;;;;4901426;29;20190;-72
2023/07/15 02:01:37;;;;;;;2.23;2.00;;;;;;;;;;4912409;29;20193;-72
2023/07/15 02:04:02;;;;;;;1.60;1.50;;;;;;;;;;4911632;29;20201;-73
2023/07/15 02:06:27;;;;;;;1.90;1.80;;;;;;;;;;4920055;29;20220;-72
2023/07/15 02:08:53;;;;;;;2.80;1.90;;;;;;;;;;4909683;29;20206;-72
2023/07/15 02:11:18;;;;;;;2.13;1.70;;;;;;;;;;4912104;29;20248;-73
2023/07/15 02:13:44;;;;;;;2.38;2.17;;;;;;;;;;4909785;29;20182;-73
2023/07/15 02:16:09;;;;;;;3.95;2.17;;;;;;;;;;4914571;29;20190;-73
2023/07/15 02:18:35;;;;;;;2.10;1.90;;;;;;;;;;4905946;29;20182;-73
2023/07/15 02:21:00;;;;;;;2.10;1.90;;;;;;;;;;4909591;29;20189;-72
2023/07/15 02:23:25;;;;;;;2.73;2.37;;;;;;;;;;4914380;29;20217;-73
2023/07/15 02:25:50;;;;;;;1.83;1.73;;;;;;;;;;4917307;29;20190;-72
2023/07/15 02:28:16;;;;;;;2.17;1.97;;;;;;;;;;4912770;29;20210;-73
2023/07/15 02:30:41;;;;;;;3.70;2.07;;;;;;;;;;4911711;29;20186;-73
2023/07/15 02:33:06;;;;;;;4.30;2.00;;;;;;;;;;4909463;29;20173;-73
2023/07/15 02:35:33;;;;;;;1.80;1.70;;;;;;;;;;4916938;29;20194;-73
2023/07/15 02:37:59;;;;;;;1.60;1.50;;;;;;;;;;4911643;29;20210;-73
2023/07/15 02:40:25;;;;;;;2.87;1.83;;;;;;;;;;4904540;29;20192;-72
2023/07/15 02:42:51;;;;;;;3.77;2.20;;;;;;;;;;4912408;29;20184;-72
2023/07/15 02:45:17;;;;;;;5.90;1.97;;;;;;;;;;4894743;29;20205;-73
2023/07/15 02:47:43;;;;;;;2.97;2.03;;;;;;;;;;4898379;29;20185;-72
2023/07/15 02:50:09;;;;;;;2.67;2.00;;;;;;;;;;4910893;29;20198;-73
2023/07/15 02:52:35;;;;;;;2.13;1.80;;;;;;;;;;4916870;29;20204;-72
2023/07/15 02:55:01;;;;;;;3.17;2.10;;;;;;;;;;4915653;29;20233;-73
2023/07/15 02:57:27;;;;;;;2.47;2.03;;;;;;;;;;4898664;29;20277;-73
2023/07/15 02:59:52;;;;;;;2.63;1.90;;;;;;;;;;4907684;29;20194;-73
2023/07/15 03:02:17;;;;;;;2.10;1.90;;;;;;;;;;4909745;29;20198;-73
2023/07/15 03:04:43;;;;;;;2.30;1.93;;;;;;;;;;4909082;29;20198;-73
2023/07/15 03:07:09;;;;;;;2.10;1.90;;;;;;;;;;4913045;29;20237;-73
2023/07/15 03:09:34;;;;;;;2.80;1.80;;;;;;;;;;4897901;29;20209;-73
2023/07/15 03:12:00;;;;;;;2.73;1.73;;;;;;;;;;4898724;29;20201;-73
2023/07/15 03:14:25;;;;;;;2.53;1.77;;;;;;;;;;4916198;29;20201;-73
2023/07/15 03:16:50;;;;;;;2.27;1.97;;;;;;;;;;4903467;29;20240;-73
2023/07/15 03:19:15;;;;;;;3.00;2.03;;;;;;;;;;4913179;29;20181;-72
2023/07/15 03:21:40;;;;;;;2.03;1.83;;;;;;;;;;4910354;29;20221;-73
2023/07/15 03:24:05;;;;;;;2.53;2.20;;;;;;;;;;4914642;29;20310;-72
2023/07/15 03:26:31;;;;;;;1.93;1.83;;;;;;;;;;4906936;29;20249;-73
2023/07/15 03:28:57;;;;;;;3.10;2.00;;;;;;;;;;4900094;29;20210;-73
2023/07/15 03:31:22;;;;;;;2.63;2.00;;;;;;;;;;4901919;29;20177;-73
2023/07/15 03:33:51;;;;;;;2.30;1.80;;;;;;;;;;4899725;29;20196;-73
2023/07/15 03:36:17;;;;;;;2.40;2.13;;;;;;;;;;4910958;29;20180;-73
2023/07/15 03:38:42;;;;;;;2.10;1.90;;;;;;;;;;4915090;29;20190;-73
2023/07/15 03:41:07;;;;;;;2.27;2.07;;;;;;;;;;4902784;29;20196;-73
2023/07/15 03:43:32;;;;;;;3.20;2.10;;;;;;;;;;4900175;29;20185;-73
2023/07/15 03:45:57;;;;;;;3.53;2.40;;;;;;;;;;4911356;29;20252;-73
2023/07/15 03:48:23;;;;;;;2.77;2.23;;;;;;;;;;4899729;29;20210;-72
2023/07/15 03:50:48;;;;;;;2.30;2.10;;;;;;;;;;4908224;29;20278;-73
2023/07/15 03:53:13;;;;;;;2.57;2.37;;;;;;;;;;4911471;29;20235;-73
2023/07/15 03:55:38;;;;;;;2.40;2.20;;;;;;;;;;4907180;29;20326;-72
2023/07/15 03:58:04;;;;;;;2.17;1.97;;;;;;;;;;4894763;29;20196;-73
2023/07/15 04:00:29;;;;;;;2.57;2.10;;;;;;;;;;4900348;29;20198;-73
2023/07/15 04:02:55;;;;;;;3.60;2.27;;;;;;;;;;4890310;29;20303;-73
2023/07/15 04:05:20;;;;;;;2.60;2.23;;;;;;;;;;4900464;29;20177;-73
2023/07/15 04:07:45;;;;;;;2.73;2.17;;;;;;;;;;4912060;29;20277;-73
2023/07/15 04:10:11;;;;;;;2.00;1.80;;;;;;;;;;4902996;29;20192;-73
2023/07/15 04:12:36;;;;;;;2.23;2.03;;;;;;;;;;4895766;29;20185;-73
2023/07/15 04:15:01;;;;;;;2.20;2.00;;;;;;;;;;4909686;29;20187;-73
2023/07/15 04:17:27;;;;;;;2.30;2.10;;;;;;;;;;4896137;29;20185;-73
2023/07/15 04:19:52;;;;;;;2.83;2.20;;;;;;;;;;4898172;29;20193;-72
2023/07/15 04:22:17;;;;;;;2.37;2.10;;;;;;;;;;4904202;29;20191;-72
2023/07/15 04:24:42;;;;;;;2.77;2.43;;;;;;;;;;4904281;29;20191;-73
2023/07/15 04:27:08;;;;;;;2.30;2.10;;;;;;;;;;4910855;29;20191;-72
2023/07/15 04:29:34;;;;;;;2.70;2.27;;;;;;;;;;4906014;29;20199;-73
2023/07/15 04:31:59;;;;;;;2.10;1.90;;;;;;;;;;4893131;29;20198;-73
2023/07/15 04:34:24;;;;;;;3.50;1.80;;;;;;;;;;4895477;29;20188;-73
2023/07/15 04:36:49;;;;;;;2.10;1.90;;;;;;;;;;4893986;29;20183;-73
2023/07/15 04:39:15;;;;;;;2.30;2.10;;;;;;;;;;4894487;29;20182;-73
2023/07/15 04:41:40;;;;;;;3.53;2.17;;;;;;;;;;4902381;29;20188;-73
2023/07/15 04:44:06;;;;;;;5.03;2.10;;;;;;;;;;4894580;29;20185;-72
2023/07/15 04:46:31;;;;;;;2.17;1.97;;;;;;;;;;4891313;29;20197;-73
2023/07/15 04:48:56;;;;;;;2.17;2.07;;;;;;;;;;4896188;29;20215;-74
2023/07/15 04:51:21;;;;;;;2.23;2.03;;;;;;;;;;4895193;29;20267;-73
2023/07/15 04:53:47;;;;;;;2.17;1.97;;;;;;;;;;4910910;29;20234;-72
2023/07/15 04:56:12;;;;;;;2.35;1.90;;;;;;;;;;4890619;29;20180;-72
2023/07/15 04:58:38;;;;;;;2.50;2.07;;;;;;;;;;4905033;29;20202;-73
2023/07/15 05:01:03;;;;;;;3.92;2.50;;;;;;;;;;4889193;29;20184;-73
2023/07/15 05:03:28;;;;;;;2.17;1.98;;;;;;;;;;4890961;29;20192;-73
2023/07/15 05:05:54;;;;;;;2.22;2.03;;;;;;;;;;4892294;29;20210;-73
2023/07/15 05:08:22;;;;;;;4.17;2.20;;;;;;;;;;4890008;29;20214;-72
2023/07/15 05:10:51;;;;;;;2.75;1.90;;;;;;;;;;4893868;29;20262;-73
2023/07/15 05:13:16;;;;;;;2.42;2.08;;;;;;;;;;4894927;29;20255;-73
2023/07/15 05:15:42;;;;;;;3.38;2.83;;;;;;;;;;4889726;29;20278;-73
2023/07/15 05:18:07;;;;;;;4.22;1.98;;;;;;;;;;4891845;29;20195;-73
2023/07/15 05:20:35;;;;;;;3.97;2.40;;;;;;;;;;4904442;29;20195;-72
2023/07/15 05:23:02;;;;;;;2.38;2.17;;;;;;;;;;4887473;29;20192;-73
2023/07/15 05:25:27;;;;;;;2.58;2.10;;;;;;;;;;4888918;29;20187;-73
2023/07/15 05:27:52;;;;;;;3.42;2.42;;;;;;;;;;4908603;29;20183;-72
2023/07/15 05:30:19;;;;;;;2.97;2.35;;;;;;;;;;4891625;29;20186;-73
2023/07/15 05:32:44;;;;;;;2.40;2.17;;;;;;;;;;4886731;29;20183;-72
2023/07/15 05:35:09;;;;;;;2.63;2.35;;;;;;;;;;4890692;29;20190;-72
2023/07/15 05:37:35;;;;;;;2.97;2.60;;;;;;;;;;4885822;29;20182;-73
2023/07/15 05:40:00;;;;;;;2.47;2.13;;;;;;;;;;4889247;29;20183;-73
2023/07/15 05:42:25;;;;;;;2.42;2.22;;;;;;;;;;4885387;29;20190;-72
2023/07/15 05:44:50;;;;;;;2.50;2.30;;;;;;;;;;4894868;29;20187;-73
2023/07/15 05:47:16;;;;;;;3.67;2.40;;;;;;;;;;4891897;29;20228;-72
2023/07/15 05:49:42;;;;;;;2.47;2.28;;;;;;;;;;4905636;29;20302;-73
2023/07/15 05:52:07;;;;;;;2.53;2.33;;;;;;;;;;4889568;29;20191;-73
2023/07/15 05:54:32;;;;;;;2.72;2.40;;;;;;;;;;4905335;29;20320;-73
2023/07/15 05:56:58;;;;;;;2.40;2.20;;;;;;;;;;4889288;29;20179;-72
2023/07/15 05:59:23;;;;;;;4.18;2.40;;;;;;;;;;4905463;29;20278;-72
2023/07/15 06:01:48;;;;;;;2.75;2.53;;;;;;;;;;4891241;29;20315;-72
2023/07/15 06:04:14;;;;;;;2.30;2.10;;;;;;;;;;4906698;29;20204;-73
2023/07/15 06:06:39;;;;;;;2.40;2.20;;;;;;;;;;4894407;29;20194;-72
2023/07/15 06:09:04;;;;;;;2.45;2.25;;;;;;;;;;4909468;29;20217;-72
2023/07/15 06:11:30;;;;;;;2.20;2.00;;;;;;;;;;4900712;29;20186;-72
2023/07/15 06:13:55;;;;;;;2.70;2.50;;;;;;;;;;4905514;29;20202;-72
2023/07/15 06:16:20;;;;;;;3.33;2.80;;;;;;;;;;4899100;29;20227;-73
2023/07/15 06:18:46;;;;;;;4.78;2.50;;;;;;;;;;4893038;29;20288;-73
2023/07/15 06:21:11;;;;;;;5.60;2.90;;;;;;;;;;4888134;29;20211;-72
2023/07/15 06:23:36;;;;;;;3.42;2.70;;;;;;;;;;4894500;29;20195;-73
2023/07/15 06:26:01;;;;;;;3.10;2.80;;;;;;;;;;4908214;29;20184;-72
2023/07/15 06:28:27;;;;;;;2.92;2.65;;;;;;;;;;4908393;29;20214;-73
2023/07/15 06:31:06;;;;;;;2.80;2.60;;;;;;;;;;4901682;29;20168;-72
2023/07/15 06:33:33;;;;;;;3.33;2.47;;;;;;;;;;4895176;29;20183;-72
2023/07/15 06:35:58;;;;;;;3.10;2.80;;;;;;;;;;4890525;29;20180;-72
2023/07/15 06:38:25;;;;;;;2.70;2.50;;;;;;;;;;4891014;29;20187;-72
2023/07/15 06:40:50;;;;;;;2.92;2.72;;;;;;;;;;4896279;29;20187;-72
2023/07/15 06:43:16;;;;;;;5.07;2.70;;;;;;;;;;4889560;29;20185;-73
2023/07/15 06:45:41;;;;;;;2.70;2.50;;;;;;;;;;4892812;29;20223;-73
2023/07/15 06:48:06;;;;;;;2.90;2.70;;;;;;;;;;4903246;29;20212;-73
2023/07/15 06:50:31;;;;;;;3.00;2.80;;;;;;;;;;4898195;29;20176;-72
2023/07/15 06:52:56;;;;;;;3.40;3.00;;;;;;;;;;4905666;29;20200;-72
2023/07/15 06:55:22;;;;;;;3.72;2.53;;;;;;;;;;4908400;29;20239;-73
2023/07/15 06:57:47;;;;;;;2.85;2.65;;;;;;;;;;4897230;29;20278;-72
2023/07/15 07:00:13;;;;;;;3.20;2.90;;;;;;;;;;4898099;29;20183;-73
2023/07/15 07:02:38;;;;;;;4.30;3.03;;;;;;;;;;4900040;29;20187;-72
2023/07/15 07:05:03;;;;;;;4.22;3.22;;;;;;;;;;4893392;29;20270;-72
2023/07/15 07:07:29;;;;;;;3.40;3.13;;;;;;;;;;4895432;29;20205;-73
2023/07/15 07:09:54;;;;;;;3.40;3.10;;;;;;;;;;4912115;29;20219;-72
2023/07/15 07:12:19;;;;;;;3.63;3.28;;;;;;;;;;4892991;29;20313;-72
2023/07/15 07:14:44;;;;;;;3.97;3.35;;;;;;;;;;4898040;29;20183;-72
2023/07/15 07:17:09;;;;;;;3.00;2.80;;;;;;;;;;4896290;29;20206;-72
2023/07/15 07:19:35;;;;;;;4.18;3.00;;;;;;;;;;4905856;29;20177;-72
2023/07/15 07:22:00;;;;;;;3.28;2.70;;;;;;;;;;4891274;29;20171;-72
2023/07/15 07:24:25;;;;;;;3.53;2.72;;;;;;;;;;4889094;29;20196;-73
2023/07/15 07:26:51;;;;;;;3.05;2.85;;;;;;;;;;4893058;29;20239;-72
2023/07/15 07:29:16;;;;;;;3.22;2.92;;;;;;;;;;4889949;29;20195;-72
2023/07/15 07:31:41;;;;;;;3.30;2.97;;;;;;;;;;4890468;29;20184;-72
2023/07/15 07:34:06;;;;;;;3.28;2.97;;;;;;;;;;4893021;29;20179;-73
2023/07/15 07:36:32;;;;;;;4.90;3.58;;;;;;;;;;4893777;29;20207;-73
2023/07/15 07:38:57;;;;;;;2.88;2.60;;;;;;;;;;4895588;29;20186;-73
2023/07/15 07:41:22;;;;;;;2.85;2.65;;;;;;;;;;4895348;29;20183;-72
2023/07/15 07:43:47;;;;;;;3.53;2.90;;;;;;;;;;4893500;29;20183;-73
2023/07/15 07:46:13;;;;;;;3.63;3.25;;;;;;;;;;4896248;29;20187;-73
2023/07/15 07:48:38;;;;;;;3.70;3.40;;;;;;;;;;4895059;29;20327;-72
2023/07/15 07:51:04;;;;;;;3.58;3.25;;;;;;;;;;4894629;29;20180;-73
2023/07/15 07:53:29;;;;;;;4.18;3.30;;;;;;;;;;4895035;29;20211;-73
2023/07/15 07:55:54;;;;;;;3.03;2.72;;;;;;;;;;4889328;29;20174;-72
2023/07/15 07:58:20;;;;;;;3.55;3.22;;;;;;;;;;4908526;29;20191;-73
2023/07/15 08:00:45;;;;;;;3.35;3.05;;;;;;;;;;4911052;29;20183;-73
2023/07/15 08:03:10;;;;;;;3.42;3.13;;;;;;;;;;4907449;29;20203;-73
2023/07/15 08:05:42;;;;;;;3.60;3.05;;;;;;;;;;4913232;29;20179;-73
2023/07/15 08:08:08;;;;;;;3.08;2.88;;;;;;;;;;4917594;29;20179;-72
2023/07/15 08:10:33;;;;;;;3.60;3.30;;;;;;;;;;4923782;29;20184;-72
2023/07/15 08:12:58;;;;;;;3.15;2.85;;;;;;;;;;4900193;29;20179;-72
2023/07/15 08:15:23;;;;;;;3.42;3.13;;;;;;;;;;4914182;29;20195;-72
2023/07/15 08:17:48;;;;;;;6.35;3.03;;;;;;;;;;4908235;29;20179;-72
2023/07/15 08:20:14;;;;;;;3.95;3.08;;;;;;;;;;4905611;29;20269;-72
2023/07/15 08:22:39;;;;;;;4.73;3.37;;;;;;;;;;4904433;29;20196;-72
2023/07/15 08:25:04;;;;;;;4.40;2.78;;;;;;;;;;4906818;29;20492;-72
2023/07/15 08:27:30;;;;;;;4.90;3.15;;;;;;;;;;4911178;29;20195;-72
2023/07/15 08:29:55;;;;;;;3.38;3.08;;;;;;;;;;4894400;29;20212;-72
2023/07/15 08:32:20;;;;;;;3.55;3.15;;;;;;;;;;4914412;29;20206;-72
2023/07/15 08:35:02;;;;;;;3.60;3.20;;;;;;;;;;4896025;29;20202;-72
2023/07/15 08:37:27;;;;;;;5.65;3.13;;;;;;;;;;4892500;29;20246;-72
2023/07/15 08:39:52;;;;;;;3.65;3.30;;;;;;;;;;4897223;29;20191;-72
2023/07/15 08:42:19;;;;;;;5.57;3.50;;;;;;;;;;4912218;29;20239;-72
2023/07/15 08:44:45;;;;;;;3.80;3.15;;;;;;;;;;4904313;29;20179;-72
2023/07/15 08:47:11;;;;;;;3.53;3.22;;;;;;;;;;4910696;29;20189;-72
2023/07/15 08:49:38;;;;;;;3.25;2.97;;;;;;;;;;4907949;29;20215;-72
2023/07/15 08:52:03;;;;;;;3.25;2.80;;;;;;;;;;4906493;29;20238;-72
2023/07/15 08:54:29;;;;;;;3.55;3.25;;;;;;;;;;4905470;29;20235;-72
2023/07/15 08:56:54;;;;;;;3.70;3.33;;;;;;;;;;4911038;29;20179;-72
2023/07/15 08:59:20;;;;;;;4.00;3.05;;;;;;;;;;4896908;29;20186;-73
2023/07/15 09:01:45;;;;;;;3.20;2.90;;;;;;;;;;4896461;29;20191;-72
2023/07/15 09:04:10;;;;;;;3.75;3.10;;;;;;;;;;4914011;29;20198;-72
2023/07/15 09:06:35;;;;;;;3.30;3.00;;;;;;;;;;4912859;29;20187;-72
2023/07/15 09:09:00;;;;;;;3.85;3.00;;;;;;;;;;4908911;29;20507;-72
2023/07/15 09:11:36;;;;;;;3.58;3.00;;;;;;;;;;4914701;29;20245;-72
2023/07/15 09:14:11;;;;;;;3.17;2.83;;;;;;;;;;4910832;29;20183;-72
2023/07/15 09:16:38;;;;;;;3.67;2.90;;;;;;;;;;4909265;29;20284;-72
2023/07/15 09:19:03;;;;;;;2.95;2.75;;;;;;;;;;4910585;29;20187;-72
2023/07/15 09:21:28;;;;;;;5.15;3.35;;;;;;;;;;4898145;29;20178;-72
2023/07/15 09:23:59;;;;;;;3.13;2.83;;;;;;;;;;4908388;29;20183;-72
2023/07/15 09:26:24;;;;;;;4.32;2.97;;;;;;;;;;4905951;29;20435;-72
2023/07/15 09:28:50;;;;;;;3.65;2.95;;;;;;;;;;4905609;29;20218;-72
2023/07/15 09:31:21;;;;;;;3.05;2.85;;;;;;;;;;4912678;29;20174;-72
2023/07/15 09:33:47;;;;;;;3.72;3.13;;;;;;;;;;4903625;29;20191;-72
2023/07/15 09:36:12;;;;;;;3.63;3.33;;;;;;;;;;4896032;29;20186;-72
2023/07/15 09:38:38;;;;;;;3.50;3.20;;;;;;;;;;4910593;29;20186;-72
2023/07/15 09:41:05;;;;;;;7.30;3.13;;;;;;;;;;4896206;29;20182;-72
2023/07/15 09:43:47;;;;;;;4.93;3.25;;;;;;;;;;4907357;29;20222;-72
2023/07/15 09:46:13;;;;;;;2.80;2.60;;;;;;;;;;4903906;29;20198;-72
2023/07/15 09:48:38;;;;;;;3.95;3.30;;;;;;;;;;4914141;29;20230;-72
2023/07/15 09:51:03;;;;;;;3.00;2.80;;;;;;;;;;4909465;29;20253;-72
2023/07/15 09:53:30;;;;;;;3.33;3.13;;;;;;;;;;4895572;29;20281;-72
2023/07/15 09:55:55;;;;;;;3.20;3.00;;;;;;;;;;4899562;29;20237;-72
2023/07/15 09:58:24;;;;;;;3.17;2.97;;;;;;;;;;4910759;29;20187;-72
2023/07/15 10:00:57;;;;;;;3.15;2.95;;;;;;;;;;4912759;29;20210;-72
2023/07/15 10:03:48;;;;;;;3.50;3.20;;;;;;;;;;4916310;29;20192;-72
2023/07/15 10:06:14;;;;;;;5.05;3.22;;;;;;;;;;4891702;29;20191;-71
2023/07/15 10:08:39;;;;;;;3.70;3.40;;;;;;;;;;4913920;29;20238;-72
2023/07/15 10:11:06;;;;;;;3.63;3.10;;;;;;;;;;4916673;29;20214;-72
2023/07/15 10:13:31;;;;;;;3.45;3.15;;;;;;;;;;4909808;29;20196;-72
2023/07/15 10:15:57;;;;;;;3.63;3.28;;;;;;;;;;4904982;29;20178;-72
2023/07/15 10:18:24;;;;;;;3.47;3.17;;;;;;;;;;4901738;29;20218;-72
2023/07/15 10:20:54;;;;;;;3.50;3.20;;;;;;;;;;4908492;29;20179;-72
2023/07/15 10:23:26;;;;;;;3.88;3.40;;;;;;;;;;4911474;29;20179;-72
2023/07/15 10:26:04;;;;;;;3.30;3.00;;;;;;;;;;4913652;29;20223;-71
2023/07/15 10:28:40;;;;;;;3.70;3.38;;;;;;;;;;4892941;29;20207;-72
2023/07/15 10:31:11;;;;;;;2.88;2.67;;;;;;;;;;4912733;29;20183;-72
2023/07/15 10:33:54;;;;;;;3.88;3.47;;;;;;;;;;4897564;29;20266;-72
2023/07/15 10:36:43;;;;;;;3.55;3.22;;;;;;;;;;4898621;29;20198;-72
2023/07/15 10:39:09;;;;;;;3.85;3.55;;;;;;;;;;4907435;29;20216;-72
2023/07/15 10:41:45;;;;;;;3.65;3.10;;;;;;;;;;4897095;29;20215;-72
2023/07/15 10:44:14;;;;;;;3.85;3.30;;;;;;;;;;4909515;29;20206;-72
2023/07/15 10:46:43;;;;;;;3.47;3.17;;;;;;;;;;4911549;29;20258;-72
2023/07/15 10:49:08;;;;;;;4.80;3.17;;;;;;;;;;4904664;29;20207;-71
2023/07/15 10:51:33;;;;;;;4.72;3.05;;;;;;;;;;4917047;29;20185;-72
2023/07/15 10:54:00;;;;;;;3.78;3.22;;;;;;;;;;4906258;29;20311;-72
2023/07/15 10:56:25;;;;;;;4.55;3.42;;;;;;;;;;4915559;29;20230;-72
2023/07/15 10:58:50;;;;;;;4.93;3.40;;;;;;;;;;4911421;29;20235;-73
2023/07/15 11:01:15;;;;;;;4.47;3.72;;;;;;;;;;4911418;29;20519;-72
2023/07/15 11:03:41;;;;;;;4.82;4.38;;;;;;;;;;4928697;29;20234;-72
2023/07/15 11:06:07;;;;;;;6.53;3.70;;;;;;;;;;4916559;29;20301;-72
2023/07/15 11:08:32;;;;;;;5.47;3.83;;;;;;;;;;4910215;29;20258;-72
2023/07/15 11:11:01;;;;;;;3.85;3.55;;;;;;;;;;4901117;29;20172;-72
2023/07/15 11:13:27;;;;;;;3.95;3.55;;;;;;;;;;4911975;29;20198;-72
2023/07/15 11:15:52;;;;;;;5.18;3.38;;;;;;;;;;4909937;29;20171;-72
2023/07/15 11:18:19;;;;;;;5.20;3.78;;;;;;;;;;4906768;29;20214;-72
2023/07/15 11:20:45;;;;;;;4.82;4.00;;;;;;;;;;4926843;29;20182;-72
2023/07/15 11:23:10;;;;;;;5.20;3.63;;;;;;;;;;4899299;29;20219;-72
2023/07/15 11:25:36;;;;;;;4.95;3.92;;;;;;;;;;4916548;29;20219;-72
2023/07/15 11:28:02;;;;;;;11.63;3.45;;;;;;;;;;4899294;29;20183;-72
2023/07/15 11:30:34;;;;;;;3.75;3.45;;;;;;;;;;4915052;29;20178;-72
2023/07/15 11:32:59;;;;;;;4.13;3.70;;;;;;;;;;4909533;29;20250;-72
2023/07/15 11:35:24;;;;;;;5.45;3.60;;;;;;;;;;4900211;29;20175;-72
2023/07/15 11:37:50;;;;;;;4.07;3.78;;;;;;;;;;4922277;29;20183;-72
2023/07/15 11:40:18;;;;;;;4.07;3.75;;;;;;;;;;4911969;29;20191;-72
2023/07/15 11:42:43;;;;;;;4.63;3.35;;;;;;;;;;4912901;29;20222;-72
2023/07/15 11:45:09;;;;;;;4.25;3.88;;;;;;;;;;4912071;29;20223;-72
2023/07/15 11:47:35;;;;;;;4.32;3.20;;;;;;;;;;4903756;29;20194;-72
2023/07/15 11:50:00;;;;;;;4.10;3.70;;;;;;;;;;4897623;29;20203;-72
2023/07/15 11:52:25;;;;;;;3.97;3.55;;;;;;;;;;4904811;29;20211;-72
2023/07/15 11:54:54;;;;;;;3.63;3.33;;;;;;;;;;4912021;29;20235;-72
2023/07/15 11:57:26;;;;;;;5.90;3.70;;;;;;;;;;4913735;29;20179;-72
2023/07/15 11:59:51;;;;;;;4.30;3.60;;;;;;;;;;4896283;29;20287;-72
2023/07/15 12:02:16;;;;;;;4.63;4.00;;;;;;;;;;4890045;29;20216;-72
2023/07/15 12:04:42;;;;;;;4.15;3.75;;;;;;;;;;4905384;29;20278;-72
2023/07/15 12:07:07;;;;;;;3.63;3.10;;;;;;;;;;4909555;29;20180;-72
2023/07/15 12:09:33;;;;;;;4.30;3.90;;;;;;;;;;4904468;29;20207;-72
2023/07/15 12:11:58;;;;;;;3.45;3.15;;;;;;;;;;4895387;29;20202;-72
2023/07/15 12:14:24;;;;;;;3.55;3.25;;;;;;;;;;4903072;29;20235;-72
2023/07/15 12:16:53;;;;;;;5.32;3.40;;;;;;;;;;4895293;29;20183;-72
2023/07/15 12:19:19;;;;;;;3.72;3.20;;;;;;;;;;4896999;29;20176;-72
2023/07/15 12:21:44;;;;;;;3.38;3.13;;;;;;;;;;4910735;29;20236;-72
2023/07/15 12:24:09;;;;;;;4.55;3.40;;;;;;;;;;4907763;29;20235;-73
2023/07/15 12:26:35;;;;;;;3.75;3.45;;;;;;;;;;4907504;29;20186;-72
2023/07/15 12:29:00;;;;;;;3.60;3.38;;;;;;;;;;4910902;29;20219;-72
2023/07/15 12:31:25;;;;;;;3.53;3.22;;;;;;;;;;4903805;29;20182;-72
2023/07/15 12:33:51;;;;;;;5.15;3.35;;;;;;;;;;4895820;29;20187;-72
2023/07/15 12:36:17;;;;;;;3.75;3.45;;;;;;;;;;4895629;29;20207;-72
2023/07/15 12:38:42;;;;;;;3.40;3.08;;;;;;;;;;4901535;29;20194;-72
2023/07/15 12:41:08;;;;;;;4.00;3.60;;;;;;;;;;4908577;29;20194;-72
2023/07/15 12:43:34;;;;;;;3.55;3.25;;;;;;;;;;4894390;29;20190;-73
2023/07/15 12:46:00;;;;;;;3.70;3.40;;;;;;;;;;4905735;29;20270;-72
2023/07/15 12:48:25;;;;;;;4.30;3.70;;;;;;;;;;4901873;29;20199;-72
2023/07/15 12:50:51;;;;;;;4.63;3.50;;;;;;;;;;4887815;29;20195;-72
2023/07/15 12:53:16;;;;;;;3.92;3.40;;;;;;;;;;4902345;29;20282;-72
2023/07/15 12:55:42;;;;;;;3.85;3.55;;;;;;;;;;4898993;29;20230;-72
2023/07/15 12:58:07;;;;;;;3.85;3.55;;;;;;;;;;4893021;29;20224;-72
2023/07/15 13:00:32;;;;;;;16.83;6.03;;;;;;;;;;4888016;29;20183;-72
2023/07/15 13:02:57;;;;;;;6.68;4.88;;;;;;;;;;4893538;29;20183;-72
2023/07/15 13:05:23;;;;;;;3.65;3.20;;;;;;;;;;4889677;29;20251;-72
2023/07/15 13:07:48;;;;;;;3.45;3.10;;;;;;;;;;4889144;29;20188;-72
2023/07/15 13:10:14;;;;;;;3.30;3.00;;;;;;;;;;4892763;29;20211;-72
2023/07/15 13:12:39;;;;;;;3.97;3.67;;;;;;;;;;4905620;29;20179;-72
2023/07/15 13:15:04;;;;;;;5.10;3.70;;;;;;;;;;4901102;29;20262;-73
2023/07/15 13:17:29;;;;;;;4.13;3.65;;;;;;;;;;4904354;29;20438;-72
2023/07/15 13:19:55;;;;;;;4.07;3.50;;;;;;;;;;4902409;29;20207;-72
2023/07/15 13:22:20;;;;;;;4.25;3.70;;;;;;;;;;4883416;29;20430;-72
2023/07/15 13:24:45;;;;;;;4.22;3.00;;;;;;;;;;4882639;29;20220;-72
2023/07/15 13:27:10;;;;;;;3.83;3.47;;;;;;;;;;4919053;29;20250;-72
2023/07/15 13:29:36;;;;;;;3.95;3.35;;;;;;;;;;4905636;29;20218;-72
2023/07/15 13:32:01;;;;;;;4.00;3.55;;;;;;;;;;4907613;29;20186;-72
2023/07/15 13:34:26;;;;;;;3.80;3.50;;;;;;;;;;4887188;29;20207;-72
2023/07/15 13:36:51;;;;;;;3.90;3.58;;;;;;;;;;4892261;29;20459;-72
2023/07/15 13:39:33;;;;;;;3.83;3.47;;;;;;;;;;4903082;29;20210;-72
2023/07/15 13:41:59;;;;;;;4.20;3.80;;;;;;;;;;4897773;29;20211;-73
2023/07/15 13:44:24;;;;;;;4.82;3.65;;;;;;;;;;4893959;29;20191;-72
2023/07/15 13:46:49;;;;;;;3.97;3.67;;;;;;;;;;4902063;29;20203;-72
2023/07/15 13:49:14;;;;;;;3.97;3.67;;;;;;;;;;4892096;29;20215;-72
2023/07/15 13:51:40;;;;;;;4.67;3.87;;;;;;;;;;4909534;29;20184;-72
2023/07/15 13:54:05;;;;;;;4.65;4.25;;;;;;;;;;4891927;29;20487;-72
2023/07/15 13:56:30;;;;;;;4.90;3.30;;;;;;;;;;4910931;29;20186;-72
2023/07/15 13:58:55;;;;;;;5.75;3.85;;;;;;;;;;4911540;29;20581;-73
2023/07/15 14:01:20;;;;;;;4.35;3.90;;;;;;;;;;4908707;29;20186;-72
2023/07/15 14:03:49;;;;;;;4.13;3.72;;;;;;;;;;4909655;29;20193;-72
2023/07/15 14:06:14;;;;;;;4.20;3.90;;;;;;;;;;4894363;29;20189;-72
2023/07/15 14:08:39;;;;;;;4.35;3.95;;;;;;;;;;4920479;29;20285;-72
2023/07/15 14:11:04;;;;;;;5.97;3.90;;;;;;;;;;4913147;29;20191;-72
2023/07/15 14:13:29;;;;;;;5.50;4.10;;;;;;;;;;4908653;29;20429;-72
2023/07/15 14:15:55;;;;;;;4.10;3.70;;;;;;;;;;4900599;29;20439;-72
2023/07/15 14:18:20;;;;;;;6.00;4.05;;;;;;;;;;4910500;29;20532;-72
2023/07/15 14:20:45;;;;;;;4.40;3.63;;;;;;;;;;4909488;29;20199;-72
2023/07/15 14:23:10;;;;;;;5.32;4.82;;;;;;;;;;4916917;29;20237;-72
2023/07/15 14:25:35;;;;;;;5.00;4.53;;;;;;;;;;4904928;29;20265;-72
2023/07/15 14:28:01;;;;;;;8.13;4.35;;;;;;;;;;4909392;29;20178;-72
2023/07/15 14:30:26;;;;;;;5.73;4.70;;;;;;;;;;4914453;29;20210;-72
2023/07/15 14:32:51;;;;;;;9.07;4.27;;;;;;;;;;4906695;29;20510;-71
2023/07/15 14:35:16;;;;;;;4.53;4.18;;;;;;;;;;4913531;29;20488;-72
2023/07/15 14:37:42;;;;;;;5.25;4.68;;;;;;;;;;4911789;29;20230;-72